Time;durP1;ratioP1;P1;durP2;ratioP2;P2;SDS_P1;SDS_P2;PMS_P1;PMS_P2;Temp;Humidity;BMP_temperature;BMP_pressure;BME280_temperature;BME280_humidity;BME280_pressure;Samples;Min_cycle;Max_cycle;Signal;HPM_P1;HPM_P2
2023/05/07 00:00:41;;;;;;;;;;;19.20;55.50;;;;;;6295344;28;19956;-64
2023/05/07 00:03:42;;;;;;;;;;;19.20;55.40;;;;;;6295864;28;19999;-64
2023/05/07 00:06:42;;;;;;;;;;;19.20;55.40;;;;;;6295477;28;19958;-64
2023/05/07 00:09:43;;;;;;;;;;;19.20;55.40;;;;;;6295523;28;19915;-64
2023/05/07 00:12:44;;;;;;;;;;;19.20;55.50;;;;;;6295234;28;19946;-64
2023/05/07 00:15:44;;;;;;;;;;;19.20;55.40;;;;;;6295464;28;20293;-64
2023/05/07 00:18:45;;;;;;;;;;;19.20;55.40;;;;;;6294875;28;20007;-64
2023/05/07 00:21:46;;;;;;;;;;;19.20;55.40;;;;;;6294908;28;19953;-64
2023/05/07 00:24:47;;;;;;;;;;;19.20;55.40;;;;;;6295132;28;19912;-64
2023/05/07 00:27:47;;;;;;;;;;;19.20;55.50;;;;;;6295041;28;19908;-64
2023/05/07 00:30:48;;;;;;;;;;;19.20;55.50;;;;;;6294589;28;20004;-64
2023/05/07 00:33:48;;;;;;;;;;;19.20;55.50;;;;;;6295041;28;19931;-64
2023/05/07 00:36:49;;;;;;;;;;;19.20;55.50;;;;;;6293863;28;20003;-64
2023/05/07 00:39:49;;;;;;;;;;;19.20;55.50;;;;;;6276581;28;19916;-64
2023/05/07 00:42:50;;;;;;;;;;;19.20;55.50;;;;;;6294682;28;19912;-64
2023/05/07 00:45:51;;;;;;;;;;;19.20;55.50;;;;;;6294878;28;20523;-63
2023/05/07 00:48:52;;;;;;;;;;;19.20;55.50;;;;;;6294577;28;20003;-65
2023/05/07 00:51:52;;;;;;;;;;;19.20;55.50;;;;;;6294325;28;20003;-64
2023/05/07 00:54:53;;;;;;;;;;;19.20;55.50;;;;;;6294370;28;19912;-64
2023/05/07 00:57:54;;;;;;;;;;;19.20;55.50;;;;;;6294272;28;19908;-64
2023/05/07 01:00:55;;;;;;;;;;;19.20;55.50;;;;;;6294349;28;19970;-64
2023/05/07 01:03:56;;;;;;;;;;;19.20;55.50;;;;;;6294213;28;19944;-64
2023/05/07 01:06:58;;;;;;;;;;;19.20;55.50;;;;;;6294162;28;19913;-64
2023/05/07 01:09:58;;;;;;;;;;;19.20;55.50;;;;;;6293723;28;19908;-64
2023/05/07 01:13:00;;;;;;;;;;;19.20;55.50;;;;;;6293837;28;19909;-64
2023/05/07 01:16:00;;;;;;;;;;;19.20;55.50;;;;;;6293894;28;19918;-64
2023/05/07 01:19:01;;;;;;;;;;;19.20;55.50;;;;;;6293939;28;19916;-64
2023/05/07 01:22:04;;;;;;;;;;;19.20;55.50;;;;;;6293700;28;19958;-64
2023/05/07 01:25:05;;;;;;;;;;;19.20;55.50;;;;;;6293890;28;19962;-63
2023/05/07 01:28:06;;;;;;;;;;;19.20;55.50;;;;;;6293672;28;19913;-64
2023/05/07 01:31:08;;;;;;;;;;;19.20;55.50;;;;;;6293713;28;19912;-64
2023/05/07 01:34:09;;;;;;;;;;;19.20;55.50;;;;;;6293528;28;19996;-64
2023/05/07 01:37:10;;;;;;;;;;;19.20;55.50;;;;;;6267925;28;20617;-64
2023/05/07 01:40:11;;;;;;;;;;;19.20;55.50;;;;;;6268691;28;19913;-64
2023/05/07 01:43:12;;;;;;;;;;;19.20;55.50;;;;;;6268832;28;19909;-64
2023/05/07 01:46:12;;;;;;;;;;;19.20;55.50;;;;;;6276529;28;19924;-64
2023/05/07 01:49:13;;;;;;;;;;;19.20;55.50;;;;;;6293773;28;19913;-64
2023/05/07 01:52:14;;;;;;;;;;;19.20;55.50;;;;;;6293111;28;19958;-64
2023/05/07 01:55:14;;;;;;;;;;;19.20;55.50;;;;;;6293478;28;20374;-64
2023/05/07 01:58:15;;;;;;;;;;;19.20;55.60;;;;;;6293400;28;19954;-64
2023/05/07 02:01:15;;;;;;;;;;;19.20;55.50;;;;;;6293217;28;19917;-64
2023/05/07 02:04:16;;;;;;;;;;;19.20;55.50;;;;;;6293227;28;19908;-64
2023/05/07 02:07:17;;;;;;;;;;;19.20;55.50;;;;;;6293517;28;19909;-65
2023/05/07 02:10:19;;;;;;;;;;;19.20;55.50;;;;;;6275289;28;19909;-64
2023/05/07 02:13:21;;;;;;;;;;;19.20;55.50;;;;;;6293217;28;19908;-64
2023/05/07 02:16:23;;;;;;;;;;;19.20;56.20;;;;;;6292594;28;19981;-64
2023/05/07 02:19:24;;;;;;;;;;;19.20;55.50;;;;;;6292611;28;19946;-64
2023/05/07 02:22:25;;;;;;;;;;;19.20;55.50;;;;;;6292812;28;19908;-64
2023/05/07 02:25:26;;;;;;;;;;;19.20;55.50;;;;;;6293654;28;19961;-64
2023/05/07 02:28:26;;;;;;;;;;;19.20;55.60;;;;;;6293005;28;19908;-64
2023/05/07 02:31:27;;;;;;;;;;;19.20;55.60;;;;;;6274956;28;19909;-64
2023/05/07 02:34:28;;;;;;;;;;;19.20;55.50;;;;;;6293253;28;19908;-63
2023/05/07 02:37:28;;;;;;;;;;;19.20;55.50;;;;;;6292940;28;19908;-64
2023/05/07 02:40:29;;;;;;;;;;;19.20;55.60;;;;;;6292970;28;20007;-63
2023/05/07 02:43:29;;;;;;;;;;;19.20;55.50;;;;;;6292702;28;20003;-64
2023/05/07 02:46:30;;;;;;;;;;;19.20;55.60;;;;;;6292631;28;19920;-65
2023/05/07 02:49:31;;;;;;;;;;;19.20;55.50;;;;;;6293006;28;19940;-64
2023/05/07 02:52:31;;;;;;;;;;;19.20;55.50;;;;;;6292852;28;19959;-64
2023/05/07 02:55:32;;;;;;;;;;;19.20;55.50;;;;;;6292560;28;19915;-64
2023/05/07 02:58:32;;;;;;;;;;;19.20;55.50;;;;;;6293334;28;19944;-64
2023/05/07 03:01:33;;;;;;;;;;;19.20;55.50;;;;;;6296756;28;19947;-63
2023/05/07 03:04:33;;;;;;;;;;;19.20;55.60;;;;;;6296804;28;19909;-64
2023/05/07 03:07:35;;;;;;;;;;;19.20;55.60;;;;;;6297057;28;19908;-64
2023/05/07 03:10:36;;;;;;;;;;;19.20;55.50;;;;;;6297125;28;20017;-64
2023/05/07 03:13:36;;;;;;;;;;;19.20;55.50;;;;;;6296808;28;19916;-64
2023/05/07 03:16:37;;;;;;;;;;;19.20;55.50;;;;;;6296701;28;19952;-64
2023/05/07 03:19:38;;;;;;;;;;;19.20;55.60;;;;;;6278772;28;20389;-64
2023/05/07 03:22:39;;;;;;;;;;;19.20;55.50;;;;;;6296899;28;19912;-64
2023/05/07 03:25:39;;;;;;;;;;;19.20;55.60;;;;;;6296667;28;19931;-64
2023/05/07 03:28:40;;;;;;;;;;;19.20;55.60;;;;;;6296500;28;20003;-64
2023/05/07 03:31:40;;;;;;;;;;;19.20;55.60;;;;;;6296848;28;19913;-64
2023/05/07 03:34:41;;;;;;;;;;;19.20;55.50;;;;;;6296633;28;20533;-64
2023/05/07 03:37:42;;;;;;;;;;;19.20;55.50;;;;;;6278443;28;19912;-64
2023/05/07 03:40:42;;;;;;;;;;;19.20;55.50;;;;;;6278197;28;20357;-64
2023/05/07 03:43:43;;;;;;;;;;;19.20;55.50;;;;;;6296046;28;19909;-64
2023/05/07 03:46:43;;;;;;;;;;;19.20;56.20;;;;;;6296266;28;19958;-64
2023/05/07 03:49:44;;;;;;;;;;;19.20;55.50;;;;;;6278113;28;19915;-64
2023/05/07 03:52:45;;;;;;;;;;;19.20;55.50;;;;;;6295846;28;19908;-64
2023/05/07 03:55:45;;;;;;;;;;;19.20;55.50;;;;;;6295833;28;19912;-64
2023/05/07 03:58:47;;;;;;;;;;;19.20;55.50;;;;;;6277917;28;19916;-64
2023/05/07 04:01:48;;;;;;;;;;;19.20;55.50;;;;;;6295685;28;19909;-64
2023/05/07 04:04:49;;;;;;;;;;;19.20;55.50;;;;;;6295428;28;20009;-64
2023/05/07 04:07:50;;;;;;;;;;;19.20;55.50;;;;;;6295365;28;20549;-64
2023/05/07 04:10:54;;;;;;;;;;;19.20;55.50;;;;;;6295514;28;19916;-63
2023/05/07 04:13:55;;;;;;;;;;;19.20;55.50;;;;;;6296066;28;19909;-64
2023/05/07 04:16:55;;;;;;;;;;;19.20;55.50;;;;;;6295234;28;20595;-64
2023/05/07 04:19:56;;;;;;;;;;;19.20;55.50;;;;;;6295082;28;20321;-65
2023/05/07 04:22:56;;;;;;;;;;;19.20;55.60;;;;;;6295599;28;19916;-64
2023/05/07 04:25:57;;;;;;;;;;;19.20;55.50;;;;;;6277030;28;19917;-64
2023/05/07 04:28:59;;;;;;;;;;;19.20;55.60;;;;;;6268743;28;19959;-64
2023/05/07 04:31:59;;;;;;;;;;;19.20;55.50;;;;;;6270084;28;20361;-64
2023/05/07 04:35:00;;;;;;;;;;;19.20;55.50;;;;;;6286884;28;19965;-64
2023/05/07 04:38:01;;;;;;;;;;;19.20;55.50;;;;;;6294497;28;19978;-64
2023/05/07 04:41:05;;;;;;;;;;;19.20;55.60;;;;;;6294595;28;19966;-64
2023/05/07 04:44:06;;;;;;;;;;;19.20;55.50;;;;;;6294912;28;19936;-64
2023/05/07 04:47:07;;;;;;;;;;;19.20;55.60;;;;;;6294632;28;20319;-63
2023/05/07 04:50:08;;;;;;;;;;;19.20;55.60;;;;;;6294425;28;19999;-63
2023/05/07 04:53:09;;;;;;;;;;;19.20;55.50;;;;;;6294769;28;19912;-63
2023/05/07 04:56:09;;;;;;;;;;;19.20;55.50;;;;;;6294196;28;19912;-64
2023/05/07 04:59:10;;;;;;;;;;;19.20;55.50;;;;;;6294128;28;19959;-64
2023/05/07 05:02:11;;;;;;;;;;;19.20;55.60;;;;;;6293887;28;19913;-64
2023/05/07 05:05:11;;;;;;;;;;;19.20;55.50;;;;;;6294091;28;19916;-64
2023/05/07 05:08:12;;;;;;;;;;;19.20;55.50;;;;;;6294144;28;20365;-64
2023/05/07 05:11:12;;;;;;;;;;;19.20;55.50;;;;;;6294099;28;19913;-64
2023/05/07 05:14:13;;;;;;;;;;;19.20;55.50;;;;;;6294465;28;19912;-63
2023/05/07 05:17:13;;;;;;;;;;;19.20;55.50;;;;;;6293687;28;19952;-64
2023/05/07 05:20:14;;;;;;;;;;;19.20;55.50;;;;;;6267910;28;19978;-64
2023/05/07 05:23:15;;;;;;;;;;;19.20;55.60;;;;;;6268859;28;19913;-63
2023/05/07 05:26:15;;;;;;;;;;;19.20;55.60;;;;;;6269317;28;20026;-64
2023/05/07 05:29:16;;;;;;;;;;;19.20;55.60;;;;;;6271822;28;19919;-64
2023/05/07 05:32:16;;;;;;;;;;;19.20;55.60;;;;;;6293681;28;19935;-64
2023/05/07 05:35:17;;;;;;;;;;;19.20;55.50;;;;;;6293732;28;19916;-64
2023/05/07 05:38:18;;;;;;;;;;;19.20;55.60;;;;;;6275890;28;19914;-64
2023/05/07 05:41:18;;;;;;;;;;;19.20;55.50;;;;;;6293035;28;20714;-64
2023/05/07 05:44:19;;;;;;;;;;;19.20;55.50;;;;;;6293704;28;19919;-64
2023/05/07 05:47:20;;;;;;;;;;;19.20;55.50;;;;;;6293319;28;19920;-64
2023/05/07 05:50:20;;;;;;;;;;;19.20;55.50;;;;;;6267316;28;19913;-64
2023/05/07 05:53:21;;;;;;;;;;;19.20;55.50;;;;;;6268502;28;19966;-64
2023/05/07 05:56:22;;;;;;;;;;;19.20;55.50;;;;;;6268798;28;20366;-64
2023/05/07 05:59:22;;;;;;;;;;;19.20;55.50;;;;;;6268705;28;19920;-64
2023/05/07 06:02:23;;;;;;;;;;;19.20;55.50;;;;;;6268660;28;19913;-64
2023/05/07 06:05:24;;;;;;;;;;;19.20;55.50;;;;;;6276122;28;19920;-64
2023/05/07 06:08:24;;;;;;;;;;;19.20;55.50;;;;;;6293182;28;19912;-64
2023/05/07 06:11:25;;;;;;;;;;;19.20;55.50;;;;;;6293222;28;19912;-64
2023/05/07 06:14:26;;;;;;;;;;;19.20;55.50;;;;;;6293614;28;19912;-64
2023/05/07 06:17:26;;;;;;;;;;;19.20;55.50;;;;;;6293405;28;19919;-64
2023/05/07 06:20:27;;;;;;;;;;;19.20;55.50;;;;;;6293172;28;20400;-64
2023/05/07 06:23:27;;;;;;;;;;;19.20;55.50;;;;;;6274949;28;19916;-64
2023/05/07 06:26:28;;;;;;;;;;;19.20;55.50;;;;;;6293248;28;19962;-64
2023/05/07 06:29:31;;;;;;;;;;;19.20;55.50;;;;;;6293266;28;19915;-64
2023/05/07 06:32:31;;;;;;;;;;;19.20;55.50;;;;;;6292797;28;19962;-64
2023/05/07 06:35:32;;;;;;;;;;;19.20;55.50;;;;;;6296617;28;19984;-64
2023/05/07 06:38:32;;;;;;;;;;;19.20;55.50;;;;;;6297756;28;20012;-64
2023/05/07 06:41:34;;;;;;;;;;;19.20;55.50;;;;;;6297139;28;20426;-64
2023/05/07 06:44:34;;;;;;;;;;;19.20;55.50;;;;;;6297614;28;19909;-64
2023/05/07 06:47:35;;;;;;;;;;;19.20;55.50;;;;;;6297648;28;19958;-64
2023/05/07 06:50:35;;;;;;;;;;;19.20;55.50;;;;;;6297284;28;20418;-65
2023/05/07 06:53:36;;;;;;;;;;;19.20;55.50;;;;;;6297239;28;19943;-64
2023/05/07 06:56:37;;;;;;;;;;;19.20;55.50;;;;;;6297586;28;19909;-64
2023/05/07 06:59:37;;;;;;;;;;;19.20;55.50;;;;;;6297187;28;19963;-64
2023/05/07 07:02:38;;;;;;;;;;;19.20;55.50;;;;;;6297197;28;19912;-64
2023/05/07 07:05:40;;;;;;;;;;;19.20;55.50;;;;;;6297019;28;19919;-64
2023/05/07 07:08:40;;;;;;;;;;;19.20;55.50;;;;;;6297038;28;19912;-64
2023/05/07 07:11:41;;;;;;;;;;;19.20;55.50;;;;;;6296804;28;19909;-64
2023/05/07 07:14:42;;;;;;;;;;;19.20;55.50;;;;;;6296911;28;19948;-64
2023/05/07 07:17:42;;;;;;;;;;;19.20;55.50;;;;;;6297063;28;19908;-63
2023/05/07 07:20:44;;;;;;;;;;;19.20;55.50;;;;;;6296866;28;19912;-64
2023/05/07 07:23:44;;;;;;;;;;;19.20;55.50;;;;;;6271922;28;19959;-64
2023/05/07 07:26:45;;;;;;;;;;;19.20;55.50;;;;;;6271713;28;19909;-63
2023/05/07 07:29:46;;;;;;;;;;;19.20;55.50;;;;;;6294160;28;19938;-64
2023/05/07 07:32:46;;;;;;;;;;;19.20;55.50;;;;;;6296683;28;20007;-64
2023/05/07 07:35:47;;;;;;;;;;;19.20;55.50;;;;;;6296577;28;19915;-64
2023/05/07 07:38:47;;;;;;;;;;;19.20;55.50;;;;;;6278549;28;20011;-63
2023/05/07 07:41:48;;;;;;;;;;;19.20;55.40;;;;;;6295958;28;19915;-64
2023/05/07 07:44:48;;;;;;;;;;;19.20;55.50;;;;;;6295860;28;19959;-63
2023/05/07 07:47:49;;;;;;;;;;;19.20;55.50;;;;;;6296255;28;19969;-63
2023/05/07 07:50:51;;;;;;;;;;;19.20;55.50;;;;;;6296224;28;19943;-63
2023/05/07 07:53:51;;;;;;;;;;;19.20;55.40;;;;;;6295945;28;20266;-63
2023/05/07 07:56:52;;;;;;;;;;;19.20;55.50;;;;;;6296111;28;19912;-63
2023/05/07 07:59:52;;;;;;;;;;;19.20;55.50;;;;;;6296174;28;19946;-63
2023/05/07 08:02:53;;;;;;;;;;;19.20;55.50;;;;;;6295930;28;19908;-64
2023/05/07 08:05:53;;;;;;;;;;;19.20;55.40;;;;;;6295898;28;19999;-63
2023/05/07 08:08:54;;;;;;;;;;;19.20;55.40;;;;;;6295671;28;20284;-63
2023/05/07 08:11:55;;;;;;;;;;;19.20;55.50;;;;;;6295919;28;19925;-63
2023/05/07 08:14:55;;;;;;;;;;;19.20;55.50;;;;;;6295683;28;19973;-63
2023/05/07 08:17:59;;;;;;;;;;;19.20;55.50;;;;;;6295696;28;20070;-63
2023/05/07 08:21:00;;;;;;;;;;;19.20;55.50;;;;;;6295686;28;19943;-64
2023/05/07 08:24:01;;;;;;;;;;;19.20;55.40;;;;;;6295096;28;19919;-63
2023/05/07 08:27:03;;;;;;;;;;;19.20;55.40;;;;;;6295273;28;19909;-63
2023/05/07 08:30:04;;;;;;;;;;;19.20;55.40;;;;;;6277710;28;19955;-63
2023/05/07 08:33:04;;;;;;;;;;;19.20;55.50;;;;;;6295130;28;19967;-64
2023/05/07 08:36:05;;;;;;;;;;;19.20;55.50;;;;;;6294870;28;19986;-63
2023/05/07 08:39:06;;;;;;;;;;;19.20;55.50;;;;;;6295228;28;19912;-63
2023/05/07 08:42:07;;;;;;;;;;;19.20;55.50;;;;;;6294757;28;19908;-63
2023/05/07 08:45:09;;;;;;;;;;;19.20;55.40;;;;;;6294719;28;19917;-64
2023/05/07 08:48:14;;;;;;;;;;;19.20;55.50;;;;;;6294532;28;19916;-65
2023/05/07 08:51:17;;;;;;;;;;;19.20;55.40;;;;;;6288493;28;19954;-67
2023/05/07 08:54:19;;;;;;;;;;;19.20;55.40;;;;;;6275970;28;19940;-67
2023/05/07 08:57:21;;;;;;;;;;;19.20;55.40;;;;;;6292989;28;19908;-67
2023/05/07 09:00:22;;;;;;;;;;;19.20;55.10;;;;;;6293610;28;19955;-67
2023/05/07 09:03:22;;;;;;;;;;;19.20;54.30;;;;;;6293635;28;20189;-67
2023/05/07 09:06:23;;;;;;;;;;;19.20;54.70;;;;;;6293423;28;20053;-67
2023/05/07 09:09:23;;;;;;;;;;;19.20;55.10;;;;;;6274964;28;19909;-66
2023/05/07 09:12:24;;;;;;;;;;;19.10;54.40;;;;;;6293918;28;19916;-67
2023/05/07 09:15:26;;;;;;;;;;;19.20;54.80;;;;;;6295626;28;19914;-67
2023/05/07 09:18:26;;;;;;;;;;;19.10;53.90;;;;;;6318741;28;19908;-67
2023/05/07 09:21:27;;;;;;;;;;;19.10;54.50;;;;;;6292423;28;19962;-67
2023/05/07 09:24:30;;;;;;;;;;;19.10;54.60;;;;;;6293886;28;19913;-67
2023/05/07 09:27:31;;;;;;;;;;;19.10;54.50;;;;;;6293619;28;20435;-67
2023/05/07 09:30:32;;;;;;;;;;;19.10;53.90;;;;;;6292105;28;19909;-67
2023/05/07 09:33:32;;;;;;;;;;;19.10;54.80;;;;;;6292209;28;20007;-65
2023/05/07 09:36:33;;;;;;;;;;;19.10;53.90;;;;;;6293021;28;19913;-67
2023/05/07 09:39:44;;;;;;;;;;;19.10;53.90;;;;;;6293680;28;20011;-67
2023/05/07 09:42:44;;;;;;;;;;;19.10;53.70;;;;;;6293777;28;19985;-67
2023/05/07 09:45:46;;;;;;;;;;;19.10;53.70;;;;;;6293609;28;20320;-66
2023/05/07 09:48:48;;;;;;;;;;;19.10;53.60;;;;;;6292703;28;20525;-67
2023/05/07 09:51:49;;;;;;;;;;;19.10;53.50;;;;;;6303819;28;19908;-65
2023/05/07 09:54:51;;;;;;;;;;;19.10;53.20;;;;;;6293806;28;19909;-66
2023/05/07 09:57:52;;;;;;;;;;;19.10;53.40;;;;;;6291768;28;19913;-67
2023/05/07 10:00:53;;;;;;;;;;;19.10;52.80;;;;;;6265316;28;19924;-67
2023/05/07 10:03:54;;;;;;;;;;;19.10;53.40;;;;;;6305133;28;20027;-65
2023/05/07 10:06:55;;;;;;;;;;;19.10;53.40;;;;;;6302913;28;19908;-65
2023/05/07 10:09:56;;;;;;;;;;;19.20;53.50;;;;;;6297129;28;20403;-66
2023/05/07 10:12:56;;;;;;;;;;;19.20;53.90;;;;;;6298133;28;19915;-66
2023/05/07 10:15:57;;;;;;;;;;;19.20;54.20;;;;;;6298490;28;20389;-65
2023/05/07 10:18:59;;;;;;;;;;;19.20;54.20;;;;;;6298068;28;20385;-66
2023/05/07 10:22:02;;;;;;;;;;;19.20;54.20;;;;;;6298003;28;19908;-65
2023/05/07 10:25:04;;;;;;;;;;;19.20;54.20;;;;;;6296404;28;19915;-66
2023/05/07 10:28:06;;;;;;;;;;;19.20;54.20;;;;;;6297841;28;20013;-66
2023/05/07 10:31:21;;;;;;;;;;;19.10;54.20;;;;;;6297786;28;19912;-66
2023/05/07 10:34:25;;;;;;;;;;;19.20;54.30;;;;;;6297955;28;19909;-66
2023/05/07 10:37:25;;;;;;;;;;;19.20;54.30;;;;;;6297831;28;19908;-66
2023/05/07 10:40:26;;;;;;;;;;;19.10;55.00;;;;;;6297119;28;19923;-65
2023/05/07 10:43:38;;;;;;;;;;;19.20;54.40;;;;;;6297547;28;19916;-66
2023/05/07 10:46:38;;;;;;;;;;;19.10;54.30;;;;;;6297303;28;19973;-66
2023/05/07 10:49:41;;;;;;;;;;;19.20;54.40;;;;;;6279169;28;21590;-66
2023/05/07 10:52:41;;;;;;;;;;;19.10;55.10;;;;;;6297345;28;19916;-66
2023/05/07 10:55:42;;;;;;;;;;;19.10;54.40;;;;;;6271055;28;20003;-65
2023/05/07 10:58:43;;;;;;;;;;;19.10;54.40;;;;;;6272528;28;19909;-65
2023/05/07 11:01:49;;;;;;;;;;;19.10;54.50;;;;;;6271969;28;20052;-66
2023/05/07 11:05:08;;;;;;;;;;;19.10;54.50;;;;;;6275897;28;19915;-66
2023/05/07 11:08:09;;;;;;;;;;;19.10;54.50;;;;;;6296720;28;19908;-65
2023/05/07 11:11:10;;;;;;;;;;;19.10;54.50;;;;;;6297093;28;19908;-65
2023/05/07 11:14:10;;;;;;;;;;;19.10;54.50;;;;;;6296437;28;20343;-66
2023/05/07 11:17:11;;;;;;;;;;;19.10;54.60;;;;;;6296574;28;19912;-66
2023/05/07 11:20:12;;;;;;;;;;;19.10;54.60;;;;;;6295466;28;20631;-65
2023/05/07 11:23:31;;;;;;;;;;;19.10;55.30;;;;;;6296937;28;19934;-66
2023/05/07 11:26:43;;;;;;;;;;;19.10;54.60;;;;;;6296370;28;19962;-66
2023/05/07 11:29:46;;;;;;;;;;;19.10;54.60;;;;;;6296358;28;19904;-66
2023/05/07 11:32:47;;;;;;;;;;;19.10;54.60;;;;;;6270008;28;19909;-66
2023/05/07 11:35:48;;;;;;;;;;;19.10;54.60;;;;;;6279407;28;19909;-66
2023/05/07 11:38:48;;;;;;;;;;;19.10;54.60;;;;;;6296022;28;20258;-66
2023/05/07 11:41:49;;;;;;;;;;;19.10;55.30;;;;;;6296151;28;20435;-66
2023/05/07 11:44:49;;;;;;;;;;;19.10;54.60;;;;;;6277795;28;19927;-66
2023/05/07 11:47:50;;;;;;;;;;;19.10;54.60;;;;;;6295723;28;19916;-66
2023/05/07 11:50:51;;;;;;;;;;;19.20;54.70;;;;;;6296019;28;20255;-65
2023/05/07 11:53:52;;;;;;;;;;;19.10;54.60;;;;;;6296094;28;19916;-66
2023/05/07 11:56:55;;;;;;;;;;;19.20;54.80;;;;;;6296148;28;19948;-66
2023/05/07 11:59:57;;;;;;;;;;;19.10;54.70;;;;;;6277293;28;19918;-66
2023/05/07 12:03:02;;;;;;;;;;;19.20;54.80;;;;;;6295495;28;20007;-66
2023/05/07 12:06:05;;;;;;;;;;;19.20;54.80;;;;;;6277422;28;20443;-66
2023/05/07 12:09:07;;;;;;;;;;;19.10;54.70;;;;;;6294931;28;19947;-66
2023/05/07 12:12:08;;;;;;;;;;;19.10;54.70;;;;;;6277327;28;20011;-66
2023/05/07 12:15:08;;;;;;;;;;;19.10;54.70;;;;;;6294978;28;19913;-66
2023/05/07 12:18:10;;;;;;;;;;;19.10;54.70;;;;;;6276974;28;19958;-66
2023/05/07 12:21:10;;;;;;;;;;;19.20;54.90;;;;;;6277112;28;19955;-66
2023/05/07 12:24:11;;;;;;;;;;;19.20;54.90;;;;;;6294957;28;19916;-67
2023/05/07 12:27:12;;;;;;;;;;;19.20;54.80;;;;;;6268875;28;20370;-65
2023/05/07 12:30:13;;;;;;;;;;;19.10;54.70;;;;;;6283232;28;19954;-66
2023/05/07 12:33:17;;;;;;;;;;;19.20;54.80;;;;;;6293716;28;19913;-66
2023/05/07 12:36:18;;;;;;;;;;;19.20;54.80;;;;;;6294987;28;19947;-66
2023/05/07 12:39:19;;;;;;;;;;;19.20;54.90;;;;;;6294458;28;19966;-66
2023/05/07 12:42:25;;;;;;;;;;;19.20;54.90;;;;;;6277064;28;19908;-66
2023/05/07 12:45:26;;;;;;;;;;;19.20;54.90;;;;;;6276222;28;20374;-66
2023/05/07 12:48:27;;;;;;;;;;;19.20;54.90;;;;;;6294635;28;19913;-66
2023/05/07 12:51:27;;;;;;;;;;;19.20;54.90;;;;;;6294425;28;19919;-66
2023/05/07 12:54:32;;;;;;;;;;;19.20;54.90;;;;;;6276481;28;19935;-66
2023/05/07 12:57:39;;;;;;;;;;;19.10;54.80;;;;;;6294635;28;19908;-66
2023/05/07 13:00:40;;;;;;;;;;;19.20;54.90;;;;;;6294182;28;19970;-66
2023/05/07 13:03:41;;;;;;;;;;;19.20;54.90;;;;;;6294248;28;20377;-65
2023/05/07 13:06:41;;;;;;;;;;;19.10;54.90;;;;;;6293716;28;20436;-66
2023/05/07 13:09:42;;;;;;;;;;;19.20;55.00;;;;;;6268158;28;19959;-66
2023/05/07 13:12:42;;;;;;;;;;;19.20;55.00;;;;;;6268940;28;19912;-66
2023/05/07 13:15:43;;;;;;;;;;;19.10;54.90;;;;;;6269182;28;19963;-66
2023/05/07 13:18:45;;;;;;;;;;;19.10;54.90;;;;;;6268486;28;19908;-66
2023/05/07 13:21:46;;;;;;;;;;;19.20;55.00;;;;;;6294110;28;19912;-65
2023/05/07 13:24:46;;;;;;;;;;;19.10;54.90;;;;;;6293579;28;19908;-65
2023/05/07 13:27:47;;;;;;;;;;;19.10;54.90;;;;;;6293888;28;20259;-65
2023/05/07 13:30:48;;;;;;;;;;;19.10;55.60;;;;;;6293583;28;19951;-65
2023/05/07 13:33:48;;;;;;;;;;;19.20;55.10;;;;;;6293223;28;19908;-65
2023/05/07 13:36:50;;;;;;;;;;;19.20;55.00;;;;;;6293303;28;19977;-65
2023/05/07 13:39:50;;;;;;;;;;;19.10;55.00;;;;;;6293625;28;19913;-66
2023/05/07 13:42:51;;;;;;;;;;;19.20;55.10;;;;;;6292592;28;19919;-65
2023/05/07 13:45:52;;;;;;;;;;;19.10;55.00;;;;;;6274730;28;19943;-65
2023/05/07 13:48:52;;;;;;;;;;;19.10;55.00;;;;;;6293445;28;19912;-65
2023/05/07 13:51:53;;;;;;;;;;;19.10;55.00;;;;;;6293473;28;19912;-64
2023/05/07 13:54:54;;;;;;;;;;;19.10;55.00;;;;;;6282049;28;20628;-66
2023/05/07 13:57:56;;;;;;;;;;;19.10;55.00;;;;;;6280841;28;20004;-65
2023/05/07 14:00:57;;;;;;;;;;;19.10;55.00;;;;;;6297575;28;19913;-64
2023/05/07 14:03:59;;;;;;;;;;;19.20;55.10;;;;;;6291598;28;20008;-65
2023/05/07 14:06:59;;;;;;;;;;;19.10;55.00;;;;;;6290384;28;19915;-65
2023/05/07 14:10:00;;;;;;;;;;;19.10;55.10;;;;;;6290276;28;19944;-65
2023/05/07 14:13:01;;;;;;;;;;;19.10;55.10;;;;;;6285988;28;20003;-66
2023/05/07 14:16:01;;;;;;;;;;;19.10;55.10;;;;;;6291376;28;19947;-64
2023/05/07 14:19:02;;;;;;;;;;;19.10;55.10;;;;;;6291132;28;19943;-64
2023/05/07 14:22:02;;;;;;;;;;;19.10;55.10;;;;;;6272877;28;19956;-65
2023/05/07 14:25:03;;;;;;;;;;;19.10;55.10;;;;;;6295430;28;19930;-65
2023/05/07 14:28:04;;;;;;;;;;;19.10;55.10;;;;;;6291100;28;20392;-65
2023/05/07 14:31:06;;;;;;;;;;;19.10;55.10;;;;;;6291207;28;19966;-65
2023/05/07 14:34:06;;;;;;;;;;;19.10;55.10;;;;;;6273169;28;19908;-65
2023/05/07 14:37:07;;;;;;;;;;;19.10;55.10;;;;;;6283896;28;20348;-65
2023/05/07 14:40:08;;;;;;;;;;;19.10;55.10;;;;;;6290698;28;19920;-65
2023/05/07 14:43:08;;;;;;;;;;;19.10;55.10;;;;;;6306479;28;19912;-65
2023/05/07 14:46:09;;;;;;;;;;;19.10;55.10;;;;;;6315790;28;19924;-65
2023/05/07 14:49:16;;;;;;;;;;;19.10;55.10;;;;;;6292943;28;20369;-65
2023/05/07 14:52:17;;;;;;;;;;;19.10;55.10;;;;;;6272322;28;20003;-64
2023/05/07 14:55:17;;;;;;;;;;;19.10;55.10;;;;;;6299849;28;19915;-64
2023/05/07 14:58:18;;;;;;;;;;;19.10;55.10;;;;;;6295421;28;19909;-65
2023/05/07 15:01:20;;;;;;;;;;;19.10;55.10;;;;;;6304643;28;20013;-65
2023/05/07 15:04:20;;;;;;;;;;;19.10;55.10;;;;;;6295626;28;19912;-65
2023/05/07 15:07:21;;;;;;;;;;;19.10;55.10;;;;;;6295181;28;20431;-65
2023/05/07 15:10:21;;;;;;;;;;;19.10;55.20;;;;;;6277672;28;19915;-65
2023/05/07 15:13:22;;;;;;;;;;;19.10;55.10;;;;;;6303794;28;20038;-65
2023/05/07 15:16:22;;;;;;;;;;;19.10;55.10;;;;;;6295812;28;19912;-66
2023/05/07 15:19:28;;;;;;;;;;;19.10;55.10;;;;;;6295113;28;20357;-66
2023/05/07 15:22:29;;;;;;;;;;;19.10;55.20;;;;;;6296971;28;19913;-65
2023/05/07 15:25:31;;;;;;;;;;;19.10;55.20;;;;;;6320139;28;19995;-64
2023/05/07 15:28:31;;;;;;;;;;;19.10;55.20;;;;;;6307440;28;19940;-64
2023/05/07 15:31:32;;;;;;;;;;;19.10;55.20;;;;;;6294965;28;20433;-65
2023/05/07 15:34:32;;;;;;;;;;;19.10;55.20;;;;;;6294482;28;19909;-65
2023/05/07 15:37:33;;;;;;;;;;;19.10;55.20;;;;;;6276594;28;19936;-65
2023/05/07 15:40:35;;;;;;;;;;;19.10;55.20;;;;;;6294990;28;20341;-65
2023/05/07 15:43:46;;;;;;;;;;;19.10;55.20;;;;;;6305218;28;20261;-64
2023/05/07 15:46:47;;;;;;;;;;;19.10;55.20;;;;;;6319014;28;19924;-65
2023/05/07 15:49:47;;;;;;;;;;;19.10;55.20;;;;;;6311730;28;20354;-65
2023/05/07 15:52:48;;;;;;;;;;;19.10;55.20;;;;;;6294526;28;19923;-65
2023/05/07 15:55:49;;;;;;;;;;;19.10;55.30;;;;;;6315123;28;19912;-65
2023/05/07 15:58:49;;;;;;;;;;;19.10;55.20;;;;;;6319364;28;20365;-66
2023/05/07 16:01:50;;;;;;;;;;;19.10;55.20;;;;;;6296217;28;20027;-65
2023/05/07 16:04:51;;;;;;;;;;;19.10;55.20;;;;;;6294178;28;20009;-65
2023/05/07 16:07:51;;;;;;;;;;;19.10;55.20;;;;;;6293144;28;19919;-65
2023/05/07 16:10:52;;;;;;;;;;;19.10;55.30;;;;;;6301507;28;19912;-65
2023/05/07 16:13:53;;;;;;;;;;;19.10;55.20;;;;;;6298868;28;20288;-65
2023/05/07 16:16:53;;;;;;;;;;;19.10;55.20;;;;;;6318913;28;20316;-65
2023/05/07 16:19:54;;;;;;;;;;;19.10;55.20;;;;;;6315821;28;19923;-64
2023/05/07 16:22:55;;;;;;;;;;;19.10;55.30;;;;;;6276029;28;19913;-65
2023/05/07 16:25:55;;;;;;;;;;;19.10;55.20;;;;;;6293018;28;19909;-65
2023/05/07 16:28:56;;;;;;;;;;;19.10;55.30;;;;;;6293859;28;19908;-65
2023/05/07 16:31:57;;;;;;;;;;;19.10;55.30;;;;;;6316268;28;19908;-65
2023/05/07 16:34:58;;;;;;;;;;;19.10;55.30;;;;;;6305389;28;19954;-65
2023/05/07 16:37:59;;;;;;;;;;;19.10;55.30;;;;;;6275064;28;20436;-65
2023/05/07 16:41:00;;;;;;;;;;;19.10;55.30;;;;;;6293296;28;20362;-65
2023/05/07 16:44:00;;;;;;;;;;;19.10;55.30;;;;;;6293375;28;20400;-65
2023/05/07 16:47:01;;;;;;;;;;;19.10;55.30;;;;;;6292760;28;19934;-64
2023/05/07 16:50:04;;;;;;;;;;;19.10;55.30;;;;;;6283222;28;19919;-65
2023/05/07 16:53:06;;;;;;;;;;;19.10;55.30;;;;;;6250699;28;19913;-65
2023/05/07 16:56:06;;;;;;;;;;;19.10;55.30;;;;;;6279064;28;20395;-65
2023/05/07 16:59:07;;;;;;;;;;;19.10;55.30;;;;;;6297692;28;19915;-65
2023/05/07 17:02:07;;;;;;;;;;;19.10;55.30;;;;;;6293462;28;19948;-65
2023/05/07 17:05:08;;;;;;;;;;;19.10;55.30;;;;;;6291544;28;20383;-65
2023/05/07 17:08:09;;;;;;;;;;;19.10;55.30;;;;;;6290247;28;19912;-65
2023/05/07 17:11:09;;;;;;;;;;;19.10;55.30;;;;;;6292424;28;19924;-64
2023/05/07 17:14:10;;;;;;;;;;;19.10;55.30;;;;;;6291896;28;19908;-64
2023/05/07 17:17:10;;;;;;;;;;;19.10;55.30;;;;;;6302659;28;19909;-65
2023/05/07 17:20:11;;;;;;;;;;;19.10;55.30;;;;;;6292281;28;19966;-65
2023/05/07 17:23:12;;;;;;;;;;;19.10;55.30;;;;;;6292476;28;19909;-64
2023/05/07 17:26:13;;;;;;;;;;;19.10;55.40;;;;;;6291776;28;19909;-65
2023/05/07 17:29:14;;;;;;;;;;;19.10;55.30;;;;;;6292268;28;19908;-65
2023/05/07 17:32:15;;;;;;;;;;;19.10;55.40;;;;;;6292055;28;19908;-65